Time;durP1;ratioP1;P1;durP2;ratioP2;P2;SDS_P1;SDS_P2;PMS_P1;PMS_P2;Temp;Humidity;BMP_temperature;BMP_pressure;BME280_temperature;BME280_humidity;BME280_pressure;Samples;Min_cycle;Max_cycle;Signal;HPM_P1;HPM_P2
2023/02/27 00:04:56;;;;;;;4.38;1.40;;;;;;;-0.49;85.31;100907.78;20602761;28;20047;-70
2023/02/27 00:14:58;;;;;;;2.92;1.33;;;;;;;-0.58;87.34;100912.59;20609614;28;20442;-69
2023/02/27 00:24:59;;;;;;;3.38;1.10;;;;;;;-0.57;87.63;100910.09;20588798;28;20077;-69
2023/02/27 00:35:00;;;;;;;3.20;1.13;;;;;;;-0.63;88.68;100914.13;20562272;28;20047;-69
2023/02/27 00:45:02;;;;;;;8.52;1.50;;;;;;;-0.72;90.72;100909.50;20531507;28;20419;-69
2023/02/27 00:55:03;;;;;;;4.70;1.77;;;;;;;-0.73;91.82;100919.72;20523254;28;20066;-69
2023/02/27 01:05:04;;;;;;;4.88;1.23;;;;;;;-0.76;92.97;100935.06;20506154;28;20054;-70
2023/02/27 01:15:06;;;;;;;2.33;1.10;;;;;;;-0.72;93.36;100909.50;20539755;28;20079;-69
2023/02/27 01:25:07;;;;;;;2.42;1.00;;;;;;;-0.84;94.52;100902.22;20548397;28;20102;-69
2023/02/27 01:35:08;;;;;;;3.83;1.23;;;;;;;-0.83;95.15;100908.22;20533423;28;20050;-69
2023/02/27 01:45:10;;;;;;;4.60;1.60;;;;;;;-0.90;95.89;100909.69;20533141;28;20051;-68
2023/02/27 01:55:12;;;;;;;3.95;1.40;;;;;;;-0.89;95.75;100908.88;20538698;28;20042;-68
2023/02/27 02:05:13;;;;;;;4.15;1.83;;;;;;;-0.98;96.30;100898.22;20545655;28;20051;-69
2023/02/27 02:15:14;;;;;;;4.07;1.60;;;;;;;-0.92;95.36;100892.44;20520573;28;20058;-69
2023/02/27 02:25:16;;;;;;;5.70;1.35;;;;;;;-0.94;95.61;100897.53;20528636;28;20059;-69
2023/02/27 02:35:17;;;;;;;2.90;1.10;;;;;;;-0.93;94.65;100909.56;20570300;28;20058;-69
2023/02/27 02:45:19;;;;;;;3.83;1.20;;;;;;;-1.07;95.10;100910.72;20607129;28;20054;-69
2023/02/27 02:55:21;;;;;;;3.90;1.30;;;;;;;-1.01;93.36;100900.66;20587918;28;20070;-69
2023/02/27 03:05:22;;;;;;;3.65;1.30;;;;;;;-1.09;93.75;100909.78;20593792;28;20050;-69
2023/02/27 03:15:23;;;;;;;6.15;2.10;;;;;;;-1.17;93.27;100904.34;20598473;28;20336;-69
2023/02/27 03:25:25;;;;;;;6.68;1.95;;;;;;;-1.11;93.02;100909.72;20601620;28;20050;-69
2023/02/27 03:35:27;;;;;;;3.25;1.20;;;;;;;-1.14;93.71;100919.00;20594798;28;20106;-70
2023/02/27 03:45:28;;;;;;;5.95;1.45;;;;;;;-1.12;92.78;100917.38;20596721;28;20456;-69
2023/02/27 03:55:29;;;;;;;5.70;1.33;;;;;;;-1.07;91.54;100923.56;20600395;28;20419;-69
2023/02/27 04:05:30;;;;;;;5.22;1.55;;;;;;;-1.22;92.03;100930.66;20587902;28;20104;-69
2023/02/27 04:15:32;;;;;;;6.05;1.50;;;;;;;-1.26;92.38;100939.06;20579924;28;20205;-69
2023/02/27 04:25:33;;;;;;;3.38;1.38;;;;;;;-1.32;92.65;100950.84;20595350;28;20058;-69
2023/02/27 04:35:34;;;;;;;3.72;1.17;;;;;;;-1.38;93.28;100955.75;20602420;28;20435;-70
2023/02/27 04:45:37;;;;;;;3.85;1.45;;;;;;;-1.46;94.53;100957.09;20586953;28;20422;-69
2023/02/27 04:55:38;;;;;;;5.30;1.65;;;;;;;-1.42;93.17;100973.53;20576439;28;20414;-69
2023/02/27 05:05:40;;;;;;;5.75;2.35;;;;;;;-1.85;96.23;100972.56;20585139;28;20054;-69
2023/02/27 05:15:41;;;;;;;4.88;1.60;;;;;;;-2.12;99.53;100979.06;20594831;28;20089;-70
2023/02/27 05:25:42;;;;;;;22.83;7.05;;;;;;;-2.35;100.00;100984.06;20575913;28;20054;-70
2023/02/27 05:35:43;;;;;;;6.13;1.95;;;;;;;-2.49;100.00;100990.25;20581207;28;20128;-70
2023/02/27 05:45:45;;;;;;;7.10;2.20;;;;;;;-2.62;100.00;100985.34;20811969;23;20046;-68
2023/02/27 05:55:46;;;;;;;5.57;1.98;;;;;;;-2.34;100.00;100987.50;20716616;28;20118;-66
2023/02/27 06:05:48;;;;;;;8.63;2.72;;;;;;;-2.69;100.00;100988.41;20690299;28;20410;-67
2023/02/27 06:15:49;;;;;;;9.30;2.60;;;;;;;-2.85;100.00;101005.63;20691345;28;20058;-67
2023/02/27 06:25:50;;;;;;;4.50;2.20;;;;;;;-2.88;100.00;101000.34;20698359;28;20042;-67
2023/02/27 06:35:51;;;;;;;10.48;3.28;;;;;;;-2.82;100.00;101001.47;20698441;28;20045;-67
2023/02/27 06:45:53;;;;;;;9.05;2.53;;;;;;;-2.63;100.00;101011.78;20691609;28;20055;-66
2023/02/27 06:55:54;;;;;;;6.05;2.33;;;;;;;-2.58;100.00;101025.69;20691750;28;20064;-66
2023/02/27 07:05:55;;;;;;;6.93;2.65;;;;;;;-2.45;100.00;101043.38;20695087;28;20116;-66
2023/02/27 07:15:56;;;;;;;10.77;2.33;;;;;;;-2.28;100.00;101053.56;20690775;28;20050;-67
2023/02/27 07:25:58;;;;;;;8.32;3.25;;;;;;;-1.80;95.70;101052.34;20687871;28;20068;-66
2023/02/27 07:35:59;;;;;;;7.05;1.95;;;;;;;-1.17;91.28;101052.50;20689416;28;20042;-66
2023/02/27 07:46:02;;;;;;;5.22;1.83;;;;;;;-0.73;88.40;101071.44;20698491;28;20077;-66
2023/02/27 07:56:04;;;;;;;5.68;1.80;;;;;;;-0.45;87.24;101066.56;20681203;28;20061;-67
2023/02/27 08:06:05;;;;;;;6.05;1.80;;;;;;;-0.19;84.90;101064.13;20705325;28;20072;-66
2023/02/27 08:16:06;;;;;;;8.50;2.50;;;;;;;0.08;84.20;101054.88;20683538;28;20348;-66
2023/02/27 08:26:08;;;;;;;6.93;2.15;;;;;;;0.22;81.25;101056.25;20681099;28;20069;-65
2023/02/27 08:36:09;;;;;;;5.70;1.63;;;;;;;0.40;80.66;101070.63;20680647;28;20135;-66
2023/02/27 08:46:10;;;;;;;7.25;1.88;;;;;;;0.80;79.27;101072.03;20692807;28;20132;-66
2023/02/27 08:56:11;;;;;;;9.80;2.40;;;;;;;0.82;75.46;101076.44;20685448;28;20049;-65
2023/02/27 09:06:13;;;;;;;3.65;1.42;;;;;;;0.98;74.39;101080.41;20689313;28;20046;-65
2023/02/27 09:16:14;;;;;;;7.38;2.30;;;;;;;1.07;72.81;101078.13;20676524;28;20483;-67
2023/02/27 09:26:16;;;;;;;3.72;1.52;;;;;;;1.28;70.64;101089.16;20689995;28;20054;-68
2023/02/27 09:36:17;;;;;;;5.75;1.83;;;;;;;1.59;67.74;101121.13;20706555;28;20057;-67
2023/02/27 09:46:18;;;;;;;5.95;1.85;;;;;;;1.83;68.31;101099.50;20704557;28;20050;-67
2023/02/27 09:56:20;;;;;;;5.22;1.70;;;;;;;1.84;63.55;101102.13;20695477;28;20077;-67
2023/02/27 10:06:21;;;;;;;7.80;1.52;;;;;;;2.31;66.15;101095.78;20699313;28;20054;-67
2023/02/27 10:16:22;;;;;;;3.75;1.23;;;;;;;2.49;60.96;101113.53;20701131;28;20093;-67
2023/02/27 10:26:25;;;;;;;4.70;1.42;;;;;;;2.41;59.01;101121.91;20692331;28;20430;-67
2023/02/27 10:36:26;;;;;;;3.80;1.40;;;;;;;2.66;57.88;101132.09;20685378;28;20065;-67
2023/02/27 10:46:34;;;;;;;10.52;3.15;;;;;;;2.58;57.22;101130.97;20696492;28;20088;-67
2023/02/27 10:56:37;;;;;;;6.13;1.67;;;;;;;2.89;56.25;101129.28;20701406;28;20086;-67
2023/02/27 11:06:38;;;;;;;6.20;1.92;;;;;;;2.86;56.25;101136.94;20681932;28;20514;-67
2023/02/27 11:16:40;;;;;;;4.05;1.50;;;;;;;3.05;55.46;101113.31;20684643;28;20046;-67
2023/02/27 11:26:41;;;;;;;4.80;1.50;;;;;;;3.29;55.87;101124.28;20687973;28;20045;-67
2023/02/27 11:36:42;;;;;;;5.22;1.55;;;;;;;3.33;53.65;101115.75;20697207;28;20418;-67
2023/02/27 11:46:44;;;;;;;8.13;2.92;;;;;;;3.37;52.54;101114.13;20773277;23;20053;-71
2023/02/27 11:56:48;;;;;;;;;;;;;;;3.54;52.24;101115.41;20792292;28;20041;-70
2023/02/27 12:06:50;;;;;;;3.90;1.48;;;;;;;3.55;52.13;101087.84;20783889;28;19920;-70
2023/02/27 12:16:52;;;;;;;4.25;1.83;;;;;;;3.62;50.19;101094.88;20784038;28;20053;-70
2023/02/27 12:26:54;;;;;;;5.20;1.70;;;;;;;3.81;51.59;101089.28;20792305;28;20069;-71
2023/02/27 12:36:55;;;;;;;3.53;1.30;;;;;;;3.73;48.65;101075.28;20776597;28;20126;-72
2023/02/27 12:46:56;;;;;;;4.05;1.20;;;;;;;3.64;49.94;101074.19;20796092;28;20103;-72
2023/02/27 12:56:57;;;;;;;3.55;1.55;;;;;;;3.81;50.00;101045.25;20795193;28;20057;-72
2023/02/27 13:06:59;;;;;;;3.33;1.27;;;;;;;3.47;50.38;101055.69;20793022;28;20140;-72
2023/02/27 13:17:00;;;;;;;3.03;1.15;;;;;;;3.71;49.87;101069.22;20803815;28;20049;-71
2023/02/27 13:27:01;;;;;;;6.05;1.60;;;;;;;4.03;50.81;101045.75;20797930;28;20045;-70
2023/02/27 13:37:03;;;;;;;5.90;1.60;;;;;;;3.92;48.28;101061.03;20797700;28;20054;-70
2023/02/27 13:47:04;;;;;;;3.15;1.10;;;;;;;4.01;49.06;101050.00;20802289;28;20462;-71
2023/02/27 13:57:06;;;;;;;3.38;1.30;;;;;;;3.73;49.16;101056.28;20804749;28;20139;-71
2023/02/27 14:07:07;;;;;;;5.22;1.67;;;;;;;3.70;50.50;101061.41;20797985;28;20060;-71
2023/02/27 14:17:08;;;;;;;4.88;1.77;;;;;;;3.81;50.67;101053.03;20801504;28;20053;-70
2023/02/27 14:27:09;;;;;;;4.28;1.50;;;;;;;4.27;49.79;101038.47;20802810;28;20046;-70
2023/02/27 14:37:11;;;;;;;4.38;1.52;;;;;;;3.88;49.93;101055.75;20795884;28;20103;-71
2023/02/27 14:47:12;;;;;;;4.90;1.88;;;;;;;3.47;52.04;101051.41;20787221;28;20071;-69
2023/02/27 14:57:13;;;;;;;5.03;2.15;;;;;;;3.48;53.09;101052.25;20796727;28;20072;-69
2023/02/27 15:07:14;;;;;;;4.60;1.88;;;;;;;3.54;53.09;101055.84;20797834;28;20053;-69
2023/02/27 15:17:16;;;;;;;3.45;1.90;;;;;;;3.52;51.13;101067.03;20790274;28;20164;-69
2023/02/27 15:27:17;;;;;;;6.65;2.10;;;;;;;3.48;51.55;101067.78;20786905;28;20053;-70
2023/02/27 15:37:18;;;;;;;6.40;1.70;;;;;;;3.51;51.95;101067.88;20791965;28;20050;-70
2023/02/27 15:47:20;;;;;;;4.72;1.67;;;;;;;3.60;52.72;101079.34;20791958;28;20123;-70
2023/02/27 15:57:21;;;;;;;3.80;1.77;;;;;;;3.25;52.55;101096.56;20789374;28;20045;-70
2023/02/27 16:07:22;;;;;;;6.93;2.85;;;;;;;3.01;53.92;101121.81;20788933;28;20045;-70
2023/02/27 16:17:23;;;;;;;8.07;2.22;;;;;;;2.97;53.22;101109.63;20791900;28;20421;-70
2023/02/27 16:27:25;;;;;;;5.47;2.40;;;;;;;3.10;54.00;101122.06;20789389;28;20049;-70
2023/02/27 16:37:26;;;;;;;8.45;2.50;;;;;;;2.86;53.90;101137.81;20780921;28;20410;-70
2023/02/27 16:47:27;;;;;;;6.47;3.00;;;;;;;2.75;54.42;101144.41;20785193;28;20441;-70
2023/02/27 16:57:29;;;;;;;8.13;3.35;;;;;;;2.58;56.82;101144.78;20786802;28;20053;-70
2023/02/27 17:07:30;;;;;;;4.30;2.00;;;;;;;2.57;55.58;101149.91;20766034;28;20354;-70
2023/02/27 17:17:32;;;;;;;9.25;3.05;;;;;;;2.49;56.99;101172.06;20766746;28;20057;-70
2023/02/27 17:27:33;;;;;;;6.30;2.78;;;;;;;2.30;56.85;101178.44;20778062;28;20065;-69
2023/02/27 17:37:35;;;;;;;5.95;3.10;;;;;;;2.13;56.81;101193.41;20778940;28;20441;-70
2023/02/27 17:47:36;;;;;;;6.78;2.65;;;;;;;1.98;57.03;101204.13;20777643;28;20123;-69
2023/02/27 17:57:37;;;;;;;5.40;2.35;;;;;;;1.74;59.17;101211.97;20787787;28;20919;-70
2023/02/27 18:07:39;;;;;;;7.88;3.65;;;;;;;1.85;57.85;101220.06;20791773;28;20054;-70
2023/02/27 18:17:40;;;;;;;8.45;3.40;;;;;;;1.96;57.91;101225.56;20790704;28;20046;-70
2023/02/27 18:27:41;;;;;;;10.80;4.13;;;;;;;2.06;57.16;101222.47;20786041;28;20059;-69
2023/02/27 18:37:43;;;;;;;7.53;3.45;;;;;;;1.95;58.16;101219.53;20783069;28;20057;-70
2023/02/27 18:47:44;;;;;;;7.82;2.70;;;;;;;2.04;56.62;101226.69;20788260;28;20053;-70
2023/02/27 18:57:45;;;;;;;10.63;3.85;;;;;;;2.02;57.11;101225.78;20782560;28;20057;-70
2023/02/27 19:07:46;;;;;;;4.78;2.28;;;;;;;2.13;56.25;101228.69;20779810;28;20119;-72
2023/02/27 19:17:48;;;;;;;6.18;2.40;;;;;;;2.05;57.28;101242.22;20774385;28;20053;-71
2023/02/27 19:27:49;;;;;;;6.75;2.40;;;;;;;1.92;56.55;101223.72;20782027;28;20099;-71
2023/02/27 19:37:55;;;;;;;3.22;1.52;;;;;;;1.77;57.85;101224.97;20781494;28;20101;-71
2023/02/27 19:47:57;;;;;;;5.93;2.20;;;;;;;1.64;60.15;101227.97;20772336;28;20112;-73
2023/02/27 19:57:58;;;;;;;5.22;2.35;;;;;;;1.57;60.87;101233.75;20780786;28;20054;-72
2023/02/27 20:07:59;;;;;;;5.75;2.50;;;;;;;1.31;62.38;101238.00;20788051;28;20060;-72
2023/02/27 20:18:01;;;;;;;9.55;3.80;;;;;;;1.10;63.91;101261.31;20767091;28;20045;-72
2023/02/27 20:28:02;;;;;;;14.00;4.85;;;;;;;1.14;64.48;101245.13;20767289;28;20084;-72
2023/02/27 20:38:05;;;;;;;6.43;2.70;;;;;;;1.14;65.35;101250.28;20758556;28;20072;-72
2023/02/27 20:48:06;;;;;;;6.63;3.13;;;;;;;1.15;65.87;101241.75;20780868;28;20514;-72
2023/02/27 20:58:07;;;;;;;8.43;3.15;;;;;;;0.98;67.36;101245.41;20774969;28;20151;-73
2023/02/27 21:08:08;;;;;;;7.53;3.00;;;;;;;0.83;68.66;101245.72;20772126;28;20053;-72
2023/02/27 21:18:11;;;;;;;8.57;2.85;;;;;;;0.69;70.70;101234.91;20767542;28;20057;-72
2023/02/27 21:28:13;;;;;;;4.35;2.30;;;;;;;0.69;71.86;101247.78;20785290;28;20092;-72
2023/02/27 21:38:15;;;;;;;5.97;2.75;;;;;;;0.45;74.59;101246.84;20802089;28;20469;-71
2023/02/27 21:48:16;;;;;;;5.30;2.78;;;;;;;0.48;75.46;101236.69;20784330;28;20045;-72
2023/02/27 21:58:18;;;;;;;8.02;3.47;;;;;;;0.38;78.08;101231.97;20787644;28;20563;-73
2023/02/27 22:08:19;;;;;;;7.47;3.10;;;;;;;0.25;79.71;101228.06;20794438;28;20111;-73
2023/02/27 22:18:20;;;;;;;4.95;2.53;;;;;;;0.16;80.49;101220.84;20775189;28;20056;-72
2023/02/27 22:28:22;;;;;;;7.55;3.20;;;;;;;0.15;80.73;101216.53;20789527;28;20556;-72
2023/02/27 22:38:23;;;;;;;8.77;3.38;;;;;;;0.08;81.72;101205.91;20789752;28;20127;-72
2023/02/27 22:48:24;;;;;;;9.05;3.22;;;;;;;0.03;82.79;101210.88;20783709;28;20053;-73
2023/02/27 22:58:26;;;;;;;7.28;3.78;;;;;;;0.03;84.59;101202.28;20781521;28;20103;-72
2023/02/27 23:08:27;;;;;;;8.30;3.60;;;;;;;-0.16;86.36;101205.81;20792580;28;20041;-72
2023/02/27 23:18:28;;;;;;;7.05;3.45;;;;;;;-0.15;86.61;101207.56;20799648;28;20073;-74
2023/02/27 23:28:29;;;;;;;7.03;3.40;;;;;;;-0.14;85.51;101199.03;20789683;28;20410;-73
2023/02/27 23:38:31;;;;;;;7.88;3.80;;;;;;;-0.26;85.70;101195.13;20783145;28;20107;-73
2023/02/27 23:48:32;;;;;;;11.85;3.42;;;;;;;-0.33;85.40;101203.44;20800874;23;20049;-74
2023/02/27 23:58:33;;;;;;;10.00;4.03;;;;;;;-0.33;84.54;101198.28;20725764;28;20103;-74
